createdAt,value
2019-04-28T00:03:11.056Z,11.40
2019-04-28T00:08:01.978Z,11.30
2019-04-28T00:12:52.930Z,11.70
2019-04-28T00:17:43.825Z,12.20
2019-04-28T00:22:34.783Z,12.20
2019-04-28T00:27:25.691Z,12.00
2019-04-28T00:32:16.625Z,11.80
2019-04-28T00:37:09.008Z,11.50
2019-04-28T00:42:02.988Z,11.50
2019-04-28T00:46:51.687Z,12.30
2019-04-28T00:51:42.612Z,12.30
2019-04-28T00:56:33.536Z,12.20
2019-04-28T01:01:25.365Z,12.00
2019-04-28T01:06:16.286Z,11.80
2019-04-28T01:11:07.257Z,11.60
2019-04-28T01:15:59.434Z,11.50
2019-04-28T01:20:50.008Z,11.90
2019-04-28T01:25:40.925Z,12.30
2019-04-28T01:30:40.118Z,11.90
2019-04-28T01:35:30.388Z,11.90
2019-04-28T01:40:21.314Z,11.70
2019-04-28T01:45:12.235Z,11.60
2019-04-28T01:50:03.160Z,11.50
2019-04-28T01:54:54.079Z,11.80
2019-04-28T01:59:45.016Z,12.20
2019-04-28T02:04:35.923Z,12.00
2019-04-28T02:09:26.844Z,11.70
2019-04-28T02:14:19.485Z,11.50
2019-04-28T02:19:10.627Z,11.30
2019-04-28T02:24:06.411Z,11.70
2019-04-28T02:28:58.075Z,11.90
2019-04-28T02:33:50.934Z,11.90
2019-04-28T02:38:41.465Z,11.70
2019-04-28T02:43:31.208Z,11.50
2019-04-28T02:48:22.875Z,11.10
2019-04-28T02:53:14.850Z,11.10
2019-04-28T02:58:05.769Z,11.10
2019-04-28T03:02:56.707Z,11.50
2019-04-28T03:07:47.627Z,11.70
2019-04-28T03:12:41.140Z,11.60
2019-04-28T03:17:31.067Z,11.30
2019-04-28T03:22:20.657Z,11.10
2019-04-28T03:27:16.519Z,11.10
2019-04-28T03:32:28.865Z,11.00
2019-04-28T03:37:00.348Z,11.60
2019-04-28T03:41:50.247Z,11.60
2019-04-28T03:46:41.452Z,11.40
2019-04-28T03:51:32.252Z,11.10
2019-04-28T03:56:23.911Z,10.80
2019-04-28T04:01:15.571Z,10.80
2019-04-28T04:06:06.486Z,10.70
2019-04-28T04:11:10.956Z,11.20
2019-04-28T04:16:04.133Z,11.30
2019-04-28T04:20:55.067Z,11.30
2019-04-28T04:25:47.477Z,10.80
2019-04-28T04:30:40.615Z,10.80
2019-04-28T04:35:31.613Z,10.70
2019-04-28T04:40:20.972Z,10.60
2019-04-28T04:45:11.278Z,11.10
2019-04-28T04:50:02.245Z,11.30
2019-04-28T04:54:53.898Z,10.90
2019-04-28T04:59:44.851Z,10.90
2019-04-28T05:09:54.578Z,10.60
2019-04-28T05:14:46.235Z,11.20
2019-04-28T05:19:37.894Z,11.30
2019-04-28T05:24:30.356Z,11.30
2019-04-28T05:29:26.551Z,11.20
2019-04-28T05:34:11.641Z,11.00
2019-04-28T05:39:02.377Z,10.70
2019-04-28T05:43:53.307Z,10.70
2019-04-28T05:48:51.265Z,10.70
2019-04-28T05:53:42.458Z,11.10
2019-04-28T05:58:40.264Z,11.30
2019-04-28T06:03:30.605Z,11.20
2019-04-28T06:08:32.267Z,11.00
2019-04-28T06:13:23.199Z,10.80
2019-04-28T06:18:14.115Z,10.70
2019-04-28T06:23:05.032Z,10.70
2019-04-28T06:27:55.948Z,11.10
2019-04-28T06:32:46.876Z,11.40
2019-04-28T06:37:37.809Z,11.30
2019-04-28T06:42:28.767Z,11.20
2019-04-28T06:47:20.427Z,10.90
2019-04-28T06:52:11.427Z,10.90
2019-04-28T06:57:03.092Z,11.30
2019-04-28T07:01:54.016Z,11.30
2019-04-28T07:06:45.048Z,11.70
2019-04-28T07:11:36.004Z,11.60
2019-04-28T07:16:26.947Z,11.40
2019-04-28T07:21:30.653Z,11.10
2019-04-28T07:26:22.318Z,11.00
2019-04-28T07:31:13.296Z,10.90
2019-04-28T07:36:04.187Z,11.40
2019-04-28T07:40:55.100Z,11.70
2019-04-28T07:45:46.022Z,11.50
2019-04-28T07:50:36.984Z,11.30
2019-04-28T07:55:28.666Z,11.00
2019-04-28T08:00:20.603Z,11.00
2019-04-28T08:05:11.536Z,11.00
2019-04-28T08:10:02.492Z,11.40
2019-04-28T08:14:54.294Z,11.60
2019-04-28T08:19:45.292Z,11.60
2019-04-28T08:24:36.214Z,11.40
2019-04-28T08:29:27.128Z,11.30
2019-04-28T08:34:20.254Z,11.20
2019-04-28T08:39:11.175Z,11.20
2019-04-28T08:44:02.087Z,11.80
2019-04-28T08:48:53.003Z,12.10
2019-04-28T08:53:43.927Z,12.00
2019-04-28T08:58:35.608Z,11.80
2019-04-28T09:03:26.587Z,11.70
2019-04-28T09:08:17.508Z,11.80
2019-04-28T09:13:09.240Z,12.60
2019-04-28T09:18:00.167Z,12.60
2019-04-28T09:22:51.095Z,12.90
2019-04-28T09:27:42.780Z,12.70
2019-04-28T09:32:33.819Z,12.70
2019-04-28T09:37:24.733Z,12.60
2019-04-28T09:42:21.958Z,12.50
2019-04-28T09:47:12.884Z,12.80
2019-04-28T09:52:03.812Z,13.40
2019-04-28T09:56:57.014Z,13.30
2019-04-28T10:01:45.742Z,13.10
2019-04-28T10:06:36.671Z,12.90
2019-04-28T10:11:30.605Z,12.70
2019-04-28T10:16:18.603Z,12.70
2019-04-28T10:21:09.509Z,13.30
2019-04-28T10:26:01.165Z,13.70
2019-04-28T10:30:52.112Z,13.70
2019-04-28T10:35:43.216Z,13.60
2019-04-28T10:40:34.166Z,13.50
2019-04-28T10:45:25.080Z,13.50
2019-04-28T10:50:16.002Z,13.60
2019-04-28T10:55:06.919Z,14.20
2019-04-28T10:59:57.863Z,14.40
2019-04-28T11:04:49.631Z,14.20
2019-04-28T11:09:45.488Z,13.90
2019-04-28T11:14:36.444Z,13.70
2019-04-28T11:19:27.391Z,13.60
2019-04-28T11:24:19.038Z,14.30
2019-04-28T11:29:09.955Z,14.30
2019-04-28T11:34:05.762Z,14.20
2019-04-28T11:38:56.679Z,14.00
2019-04-28T11:43:47.608Z,13.80
2019-04-28T11:48:39.263Z,13.80
2019-04-28T11:53:30.175Z,13.80
2019-04-28T11:58:21.828Z,14.50
2019-04-28T12:03:12.755Z,14.60
2019-04-28T12:08:03.671Z,14.40
2019-04-28T12:12:54.591Z,14.20
2019-04-28T12:17:46.344Z,14.10
2019-04-28T12:22:37.271Z,14.10
2019-04-28T12:27:28.186Z,14.50
2019-04-28T12:32:19.121Z,14.80
2019-04-28T12:37:10.059Z,14.70
2019-04-28T12:42:00.978Z,14.70
2019-04-28T12:46:51.891Z,14.70
2019-04-28T12:51:42.806Z,14.80
2019-04-28T12:56:33.727Z,15.20
2019-04-28T13:01:27.744Z,15.90
2019-04-28T13:06:19.403Z,16.00
2019-04-28T13:11:10.323Z,16.00
2019-04-28T13:16:01.246Z,16.00
2019-04-28T13:20:52.179Z,15.90
2019-04-28T13:25:43.118Z,16.00
2019-04-28T13:30:34.040Z,16.50
2019-04-28T13:35:25.036Z,16.60
2019-04-28T13:40:17.034Z,16.40
2019-04-28T13:45:08.691Z,15.90
2019-04-28T13:50:00.491Z,15.90
2019-04-28T13:54:51.984Z,15.80
2019-04-28T13:59:42.893Z,16.00
2019-04-28T14:04:33.920Z,16.50
2019-04-28T14:09:24.827Z,16.40
2019-04-28T14:14:15.917Z,16.20
2019-04-28T14:19:07.571Z,15.90
2019-04-28T14:23:58.507Z,15.90
2019-04-28T14:28:49.643Z,16.20
2019-04-28T14:33:40.625Z,17.00
2019-04-28T14:38:31.527Z,17.20
2019-04-28T14:43:22.463Z,17.10
2019-04-28T14:48:14.196Z,16.90
2019-04-28T14:53:06.070Z,16.90
2019-04-28T14:57:57.385Z,17.40
2019-04-28T15:02:52.176Z,17.40
2019-04-28T15:07:47.016Z,17.20
2019-04-28T15:12:38.662Z,16.90
2019-04-28T15:17:29.580Z,16.90
2019-04-28T15:22:20.510Z,16.70
2019-04-28T15:27:11.431Z,16.90
2019-04-28T15:32:02.355Z,17.40
2019-04-28T15:36:53.275Z,17.60
2019-04-28T15:41:44.189Z,17.50
2019-04-28T15:46:35.131Z,17.30
2019-04-28T15:51:26.861Z,17.20
2019-04-28T15:56:18.770Z,17.20
2019-04-28T16:01:09.817Z,17.60
2019-04-28T16:06:00.746Z,17.60
2019-04-28T16:10:51.676Z,17.30
2019-04-28T16:15:43.864Z,16.80
2019-04-28T16:20:34.788Z,16.80
2019-04-28T16:25:25.711Z,16.80
2019-04-28T16:30:16.645Z,17.10
2019-04-28T16:35:07.579Z,17.10
2019-04-28T16:39:58.510Z,16.80
2019-04-28T16:44:49.430Z,16.50
2019-04-28T16:49:40.379Z,16.20
2019-04-28T16:54:32.047Z,16.40
2019-04-28T16:59:29.278Z,16.40
2019-04-28T17:04:20.948Z,16.20
2019-04-28T17:09:12.627Z,15.90
2019-04-28T17:14:05.032Z,15.60
2019-04-28T17:18:56.176Z,15.60
2019-04-28T17:23:47.180Z,15.50
2019-04-28T17:28:38.146Z,15.80
2019-04-28T17:33:29.071Z,15.90
2019-04-28T17:38:19.996Z,15.60
2019-04-28T17:43:11.650Z,15.00
2019-04-28T17:48:04.576Z,15.00
2019-04-28T17:52:55.508Z,14.80
2019-04-28T17:57:46.427Z,15.00
2019-04-28T18:02:43.211Z,15.40
2019-04-28T18:07:34.135Z,15.10
2019-04-28T18:12:25.046Z,14.80
2019-04-28T18:22:35.781Z,14.10
2019-04-28T18:27:26.783Z,14.20
2019-04-28T18:32:22.827Z,14.60
2019-04-28T18:42:38.787Z,14.10
2019-04-28T18:47:29.755Z,13.80
2019-04-28T18:52:20.664Z,13.50
2019-04-28T18:57:11.585Z,13.40
2019-04-28T19:02:08.759Z,13.70
2019-04-28T19:07:05.170Z,13.80
2019-04-28T19:11:51.415Z,13.50
2019-04-28T19:16:43.099Z,12.80
2019-04-28T19:21:34.014Z,12.90
2019-04-28T19:26:24.938Z,12.70
2019-04-28T19:31:15.855Z,12.90
2019-04-28T19:36:06.778Z,13.20
2019-04-28T19:40:58.454Z,13.00
2019-04-28T19:45:49.335Z,12.70
2019-04-28T19:50:40.254Z,12.40
2019-04-28T19:55:31.683Z,12.10
2019-04-28T20:00:22.599Z,12.20
2019-04-28T20:05:13.519Z,12.60
2019-04-28T20:10:04.439Z,12.60
2019-04-28T20:14:55.351Z,12.30
2019-04-28T20:19:46.262Z,12.00
2019-04-28T20:24:47.011Z,11.70
2019-04-28T20:29:28.123Z,11.50
2019-04-28T20:34:19.042Z,11.70
2019-04-28T20:39:09.953Z,12.20
2019-04-28T20:44:00.877Z,12.10
2019-04-28T20:48:51.796Z,11.80
2019-04-28T20:53:42.735Z,11.50
2019-04-28T20:58:33.697Z,11.40
2019-04-28T21:03:25.346Z,11.60
2019-04-28T21:08:16.887Z,11.50
2019-04-28T21:13:07.799Z,11.90
2019-04-28T21:17:58.719Z,11.70
2019-04-28T21:22:49.636Z,11.50
2019-04-28T21:27:40.603Z,11.20
2019-04-28T21:32:31.566Z,11.10
2019-04-28T21:37:22.491Z,10.90
2019-04-28T21:42:13.412Z,11.30
2019-04-28T21:47:06.272Z,11.70
2019-04-28T21:51:57.233Z,11.50
2019-04-28T21:56:48.151Z,11.30
2019-04-28T22:01:39.065Z,11.00
2019-04-28T22:06:29.971Z,10.90
2019-04-28T22:11:20.942Z,10.80
2019-04-28T22:16:12.604Z,11.40
2019-04-28T22:21:03.526Z,11.40
2019-04-28T22:25:54.448Z,11.30
2019-04-28T22:30:45.372Z,11.00
2019-04-28T22:35:36.282Z,10.80
2019-04-28T22:40:27.201Z,10.70
2019-04-28T22:45:18.105Z,10.60
2019-04-28T22:50:17.035Z,11.30
2019-04-28T22:55:09.864Z,11.30
2019-04-28T23:00:01.526Z,10.90
2019-04-28T23:04:52.487Z,10.90
2019-04-28T23:09:43.403Z,10.70
2019-04-28T23:14:34.322Z,10.60
2019-04-28T23:19:25.276Z,10.50
2019-04-28T23:24:16.944Z,11.20
2019-04-28T23:29:07.854Z,11.20
2019-04-28T23:33:58.800Z,11.00
2019-04-28T23:38:49.712Z,10.80
2019-04-28T23:43:40.627Z,10.60
2019-04-28T23:48:31.553Z,10.50
2019-04-28T23:53:28.679Z,10.40
2019-04-28T23:58:20.347Z,11.20
